createdAt,value
2023-05-15T00:01:52.051Z,17.4
2023-05-15T00:04:22.890Z,17.2
2023-05-15T00:06:53.877Z,17.3
2023-05-15T00:09:24.381Z,17.3
2023-05-15T00:11:55.264Z,17.3
2023-05-15T00:14:26.409Z,17.4
2023-05-15T00:16:57.253Z,17.4
2023-05-15T00:19:28.628Z,17.3
2023-05-15T00:21:59.326Z,17.4
2023-05-15T00:24:30.236Z,17.4
2023-05-15T00:27:01.460Z,17.5
2023-05-15T00:29:33.410Z,17.4
2023-05-15T00:32:04.105Z,17.4
2023-05-15T00:34:35.000Z,17.6
2023-05-15T00:37:05.957Z,17.6
2023-05-15T00:39:37.145Z,17.5
2023-05-15T00:42:07.653Z,17.6
2023-05-15T00:44:38.593Z,17.6
2023-05-15T00:47:09.410Z,17.6
2023-05-15T00:49:40.856Z,17.7
2023-05-15T00:52:12.109Z,17.8
2023-05-15T00:54:42.572Z,17.8
2023-05-15T00:57:13.345Z,17.6
2023-05-15T00:59:43.852Z,17.6
2023-05-15T01:02:14.952Z,17.7
2023-05-15T01:04:45.797Z,17.5
2023-05-15T01:07:16.846Z,17.5
2023-05-15T01:09:50.873Z,17.4
2023-05-15T01:12:21.938Z,17.5
2023-05-15T01:14:52.980Z,17.6
2023-05-15T01:17:24.716Z,17.6
2023-05-15T01:19:55.219Z,17.6
2023-05-15T01:22:26.597Z,17.7
2023-05-15T01:24:57.305Z,17.5
2023-05-15T01:27:29.091Z,17.6
2023-05-15T01:29:59.947Z,17.5
2023-05-15T01:32:31.409Z,17.4
2023-05-15T01:35:02.379Z,17.4
2023-05-15T01:37:33.531Z,17.5
2023-05-15T01:40:04.245Z,17.5
2023-05-15T01:42:35.713Z,17.5
2023-05-15T01:45:07.027Z,17.5
2023-05-15T01:47:37.924Z,17.7
2023-05-15T01:50:09.181Z,17.5
2023-05-15T01:52:40.626Z,17.5
2023-05-15T01:55:11.322Z,17.5
2023-05-15T01:57:42.498Z,17.5
2023-05-15T02:00:13.251Z,17.5
2023-05-15T02:02:44.561Z,17.5
2023-05-15T02:05:16.320Z,17.5
2023-05-15T02:07:47.196Z,17.5
2023-05-15T02:10:18.216Z,17.5
2023-05-15T02:12:49.108Z,17.5
2023-05-15T02:15:20.151Z,17.5
2023-05-15T02:17:50.997Z,17.6
2023-05-15T02:20:22.133Z,17.6
2023-05-15T02:22:53.098Z,17.5
2023-05-15T02:25:24.936Z,17.5
2023-05-15T02:27:55.493Z,17.4
2023-05-15T02:30:26.946Z,17.4
2023-05-15T02:32:57.771Z,17.6
2023-05-15T02:35:28.502Z,17.6
2023-05-15T02:38:00.962Z,17.6
2023-05-15T02:40:32.072Z,17.5
2023-05-15T02:43:02.952Z,17.6
2023-05-15T02:45:34.251Z,17.5
2023-05-15T02:48:05.367Z,17.5
2023-05-15T02:50:36.175Z,17.6
2023-05-15T02:53:07.610Z,17.6
2023-05-15T02:55:38.397Z,17.7
2023-05-15T02:58:09.535Z,17.8
2023-05-15T03:00:40.462Z,17.8
2023-05-15T03:03:11.551Z,17.7
2023-05-15T03:05:42.805Z,17.8
2023-05-15T03:08:13.635Z,17.9
2023-05-15T03:10:45.205Z,18
2023-05-15T03:13:16.239Z,17.9
2023-05-15T03:15:47.588Z,17.9
2023-05-15T03:18:18.883Z,18
2023-05-15T03:20:49.246Z,17.9
2023-05-15T03:23:20.179Z,18
2023-05-15T03:25:51.517Z,18.1
2023-05-15T03:28:22.430Z,18.1
2023-05-15T03:30:53.782Z,18.2
2023-05-15T03:33:24.431Z,18.1
2023-05-15T03:35:55.440Z,18.2
2023-05-15T03:38:26.311Z,18.1
2023-05-15T03:40:57.039Z,18.2
2023-05-15T03:43:27.949Z,18.2
2023-05-15T03:45:58.834Z,18.1
2023-05-15T03:48:29.696Z,18.1
2023-05-15T03:51:00.835Z,18.1
2023-05-15T03:53:31.904Z,18.1
2023-05-15T03:56:02.373Z,18.1
2023-05-15T03:58:33.389Z,18.1
2023-05-15T04:01:04.332Z,18.1
2023-05-15T04:03:35.176Z,18
2023-05-15T04:06:06.068Z,18
2023-05-15T04:08:38.711Z,18
2023-05-15T04:11:08.361Z,17.9
2023-05-15T04:13:39.488Z,17.8
2023-05-15T04:16:10.325Z,17.7
2023-05-15T04:18:41.462Z,17.8
2023-05-15T04:21:12.402Z,17.8
2023-05-15T04:23:42.833Z,17.6
2023-05-15T04:26:13.750Z,17.7
2023-05-15T04:28:49.490Z,17.8
2023-05-15T04:31:15.467Z,17.9
2023-05-15T04:33:46.220Z,17.7
2023-05-15T04:36:16.960Z,17.6
2023-05-15T04:38:47.967Z,17.6
2023-05-15T04:41:19.333Z,17.8
2023-05-15T04:43:49.907Z,17.7
2023-05-15T04:46:21.154Z,17.8
2023-05-15T04:48:52.436Z,17.8
2023-05-15T04:51:23.504Z,17.9
2023-05-15T04:53:54.183Z,17.8
2023-05-15T04:56:24.832Z,18
2023-05-15T04:58:55.574Z,17.7
2023-05-15T05:01:26.438Z,17.9
2023-05-15T05:03:57.122Z,18
2023-05-15T05:06:29.768Z,18.1
2023-05-15T05:08:58.907Z,18
2023-05-15T05:11:29.740Z,18
2023-05-15T05:14:00.350Z,18
2023-05-15T05:16:30.889Z,17.8
2023-05-15T05:19:01.665Z,18
2023-05-15T05:21:32.381Z,17.9
2023-05-15T05:24:03.686Z,18
2023-05-15T05:26:34.729Z,18
2023-05-15T05:29:05.715Z,18.1
2023-05-15T05:31:35.278Z,18.2
2023-05-15T05:34:06.163Z,18
2023-05-15T05:36:37.089Z,18.1
2023-05-15T05:39:07.462Z,18.1
2023-05-15T05:41:39.432Z,18.1
2023-05-15T05:44:10.172Z,18.2
2023-05-15T05:46:41.224Z,17.9
2023-05-15T05:49:11.963Z,18.1
2023-05-15T05:51:42.792Z,17.9
2023-05-15T05:54:14.016Z,17.9
2023-05-15T05:56:45.678Z,17.9
2023-05-15T05:59:16.688Z,18
2023-05-15T06:01:48.607Z,18.1
2023-05-15T06:04:19.354Z,18.3
2023-05-15T06:06:49.833Z,18.1
2023-05-15T06:09:20.905Z,18.1
2023-05-15T06:11:52.128Z,18.4
2023-05-15T06:14:22.996Z,18.3
2023-05-15T06:16:53.824Z,18.2
2023-05-15T06:19:24.440Z,18.3
2023-05-15T06:21:55.066Z,18
2023-05-15T06:24:25.739Z,18
2023-05-15T06:26:57.222Z,18.2
2023-05-15T06:29:29.872Z,18
2023-05-15T06:32:00.499Z,18
2023-05-15T06:34:31.083Z,18.1
2023-05-15T06:37:01.498Z,18.2
2023-05-15T06:39:31.982Z,18.1
2023-05-15T06:42:02.624Z,17.9
2023-05-15T06:44:33.802Z,18
2023-05-15T06:47:05.499Z,18
2023-05-15T06:49:36.175Z,17.9
2023-05-15T06:52:06.981Z,18
2023-05-15T06:54:37.705Z,18
2023-05-15T06:57:07.685Z,17.9
2023-05-15T06:59:38.198Z,17.8
2023-05-15T07:02:09.308Z,17.7
2023-05-15T07:04:39.899Z,17.8
2023-05-15T07:07:12.066Z,17.8
2023-05-15T07:09:43.037Z,17.7
2023-05-15T07:12:12.897Z,17.6
2023-05-15T07:14:43.885Z,17.7
2023-05-15T07:17:14.930Z,17.8
2023-05-15T07:19:46.124Z,17.8
2023-05-15T07:22:17.053Z,17.7
2023-05-15T07:24:47.252Z,17.9
2023-05-15T07:27:17.841Z,18
2023-05-15T07:29:49.069Z,18.2
2023-05-15T07:32:19.253Z,18.4
2023-05-15T07:34:49.880Z,18.3
2023-05-15T07:37:20.845Z,18.5
2023-05-15T07:39:51.261Z,18.6
2023-05-15T07:42:21.817Z,18.5
2023-05-15T07:44:52.584Z,18.5
2023-05-15T07:47:22.646Z,18.5
2023-05-15T07:49:53.418Z,18.3
2023-05-15T07:52:26.330Z,18.4
2023-05-15T07:55:00.614Z,18.3
2023-05-15T07:57:32.009Z,18.5
2023-05-15T08:00:04.800Z,18.4
2023-05-15T08:02:35.887Z,18.4
2023-05-15T08:05:06.377Z,18.5
2023-05-15T08:07:38.441Z,18.5
2023-05-15T08:10:09.384Z,18.7
2023-05-15T08:12:41.215Z,18.6
2023-05-15T08:15:16.666Z,18.4
2023-05-15T08:17:47.448Z,18.4
2023-05-15T08:20:21.089Z,18.3
2023-05-15T08:22:51.514Z,18.4
2023-05-15T08:25:22.230Z,18.3
2023-05-15T08:27:52.345Z,18.4
2023-05-15T08:30:22.971Z,18.4
2023-05-15T08:32:53.544Z,18.2
2023-05-15T08:35:30.956Z,18.1
2023-05-15T08:38:06.059Z,18.3
2023-05-15T08:40:39.410Z,18.1
2023-05-15T08:43:07.232Z,18
2023-05-15T08:45:37.944Z,18
2023-05-15T08:48:10.650Z,17.9
2023-05-15T08:50:42.332Z,18.1
2023-05-15T08:53:12.978Z,18.2
2023-05-15T08:55:43.762Z,18
2023-05-15T08:58:14.815Z,17.9
2023-05-15T09:00:51.364Z,18
2023-05-15T09:03:21.682Z,18
2023-05-15T09:05:54.521Z,18
2023-05-15T09:08:24.992Z,18.1
2023-05-15T09:10:56.363Z,18
2023-05-15T09:13:27.438Z,17.9
2023-05-15T09:15:58.157Z,17.8
2023-05-15T09:18:33.315Z,17.8
2023-05-15T09:21:04.243Z,17.9
2023-05-15T09:23:35.540Z,18
2023-05-15T09:26:06.866Z,17.8
2023-05-15T09:28:37.277Z,17.9
2023-05-15T09:31:08.736Z,18
2023-05-15T09:33:39.651Z,18
2023-05-15T09:36:10.543Z,17.8
2023-05-15T09:38:47.201Z,18
2023-05-15T09:41:15.922Z,18
2023-05-15T09:43:46.358Z,18.1
2023-05-15T09:46:17.030Z,18.2
2023-05-15T09:48:47.275Z,18.2
2023-05-15T09:51:17.386Z,18.1
2023-05-15T09:53:47.852Z,18.1
2023-05-15T09:56:22.773Z,18.1
2023-05-15T09:58:53.610Z,18.1
2023-05-15T10:01:23.993Z,18.1
2023-05-15T10:03:54.363Z,18.1
2023-05-15T10:06:24.467Z,18.4
2023-05-15T10:08:54.884Z,18.5
2023-05-15T10:11:25.520Z,18.6
2023-05-15T10:13:59.629Z,18.7
2023-05-15T10:16:30.828Z,18.9
2023-05-15T10:19:04.901Z,19.1
2023-05-15T10:21:34.652Z,19.1
2023-05-15T10:24:08.360Z,19.1
2023-05-15T10:26:39.984Z,19.2
2023-05-15T10:29:13.192Z,19.2
2023-05-15T10:31:44.720Z,19
2023-05-15T10:34:15.217Z,19
2023-05-15T10:36:44.475Z,19
2023-05-15T10:39:18.950Z,19.1
2023-05-15T10:41:54.120Z,19.1
2023-05-15T10:44:27.510Z,19.2
2023-05-15T10:46:58.377Z,19.4
2023-05-15T10:49:28.726Z,19.3
2023-05-15T10:52:04.728Z,19.4
2023-05-15T10:54:35.125Z,19.5
2023-05-15T10:57:07.639Z,19.4
2023-05-15T10:59:38.148Z,19.5
2023-05-15T11:02:17.715Z,19.5
2023-05-15T11:04:48.520Z,19.6
2023-05-15T11:07:18.841Z,19.6
2023-05-15T11:09:49.570Z,19.7
2023-05-15T11:12:20.892Z,19.8
2023-05-15T11:14:51.717Z,20
2023-05-15T11:17:26.801Z,19.9
2023-05-15T11:19:56.743Z,19.9
2023-05-15T11:22:27.120Z,20.1
2023-05-15T11:24:57.426Z,20.1
2023-05-15T11:27:30.315Z,20.3
2023-05-15T11:30:00.925Z,20.3
2023-05-15T11:32:34.044Z,20.4
2023-05-15T11:35:06.516Z,20.2
2023-05-15T11:37:38.212Z,20.3
2023-05-15T11:40:11.242Z,20.2
2023-05-15T11:42:42.049Z,20.3
2023-05-15T11:45:11.909Z,20.3
2023-05-15T11:47:42.505Z,20.4
2023-05-15T11:50:14.442Z,20.4
2023-05-15T11:52:45.604Z,20.5
2023-05-15T11:55:15.957Z,20.4
2023-05-15T11:57:46.505Z,20.5
2023-05-15T12:00:17.946Z,20.4
2023-05-15T12:02:52.349Z,20.6
2023-05-15T12:05:22.797Z,20.8
2023-05-15T12:07:53.375Z,20.7
2023-05-15T12:10:24.376Z,20.8
2023-05-15T12:13:02.102Z,20.7
2023-05-15T12:15:30.981Z,20.8
2023-05-15T12:18:03.236Z,20.8
2023-05-15T12:20:34.385Z,20.8
2023-05-15T12:23:05.046Z,20.6
2023-05-15T12:25:37.656Z,20.7
2023-05-15T12:28:07.958Z,20.8
2023-05-15T12:30:39.432Z,20.8
2023-05-15T12:33:11.968Z,20.9
2023-05-15T12:35:44.157Z,20.8
2023-05-15T12:38:14.550Z,20.7
2023-05-15T12:40:45.222Z,20.7
2023-05-15T12:43:17.007Z,20.6
2023-05-15T12:45:48.109Z,20.8
2023-05-15T12:48:20.893Z,20.8
2023-05-15T12:50:54.801Z,20.9
2023-05-15T12:53:25.279Z,20.9
2023-05-15T12:55:56.433Z,21
2023-05-15T12:58:29.283Z,20.9
2023-05-15T13:01:00.018Z,20.9
2023-05-15T13:03:32.851Z,20.9
2023-05-15T13:06:05.589Z,20.8
2023-05-15T13:08:35.912Z,21
2023-05-15T13:11:10.047Z,21.1
2023-05-15T13:13:40.881Z,21.1
2023-05-15T13:16:14.285Z,21
2023-05-15T13:18:46.171Z,21
2023-05-15T13:21:16.869Z,21
2023-05-15T13:23:50.210Z,21
2023-05-15T13:26:21.155Z,20.9
2023-05-15T13:28:53.098Z,20.8
2023-05-15T13:31:28.771Z,20.8
2023-05-15T13:34:02.388Z,20.9
2023-05-15T13:36:39.508Z,20.9
2023-05-15T13:39:11.680Z,20.6
2023-05-15T13:41:44.160Z,20.7
2023-05-15T13:44:18.248Z,20.6
2023-05-15T13:46:50.270Z,20.8
2023-05-15T13:49:21.068Z,20.8
2023-05-15T13:51:54.452Z,20.7
2023-05-15T13:54:27.874Z,20.7
2023-05-15T13:57:02.478Z,20.6
2023-05-15T13:59:35.930Z,20.5
2023-05-15T14:02:12.727Z,20.6
2023-05-15T14:04:46.736Z,20.8
2023-05-15T14:07:19.558Z,20.6
2023-05-15T14:09:52.850Z,20.7
2023-05-15T14:15:26.795Z,20.8
2023-05-15T14:18:00.492Z,20.7
2023-05-15T14:20:32.749Z,20.7
2023-05-15T14:23:09.932Z,20.5
2023-05-15T14:25:42.918Z,20.5
2023-05-15T14:28:20.513Z,20.4
2023-05-15T14:30:55.891Z,20.4
2023-05-15T14:33:28.639Z,20.4
2023-05-15T14:36:02.551Z,20.3
2023-05-15T14:38:36.749Z,20.5
2023-05-15T14:41:12.207Z,20.3
2023-05-15T14:43:44.072Z,20.2
2023-05-15T14:46:17.112Z,20.4
2023-05-15T14:48:51.166Z,20.3
2023-05-15T14:51:23.488Z,20.2
2023-05-15T14:53:58.059Z,20.2
2023-05-15T14:56:30.482Z,20.2
2023-05-15T14:59:04.246Z,19.9
2023-05-15T15:01:37.215Z,19.9
2023-05-15T15:04:09.658Z,20
2023-05-15T15:06:41.059Z,20.1
2023-05-15T15:09:13.704Z,20.1
2023-05-15T15:11:45.593Z,20.2
2023-05-15T15:14:20.339Z,20.2
2023-05-15T15:16:55.570Z,20
2023-05-15T15:19:31.321Z,20
2023-05-15T15:22:03.877Z,20
2023-05-15T15:24:37.590Z,20.1
2023-05-15T15:27:14.766Z,20.1
2023-05-15T15:29:49.701Z,20
2023-05-15T15:32:24.183Z,19.8
2023-05-15T15:34:56.907Z,19.8
2023-05-15T15:37:35.787Z,19.9
2023-05-15T15:40:13.818Z,19.9
2023-05-15T15:45:49.037Z,19.9
2023-05-15T15:48:22.014Z,19.9
2023-05-15T15:50:53.941Z,19.9
2023-05-15T15:53:24.073Z,19.9
2023-05-15T15:55:56.126Z,19.7
2023-05-15T15:58:31.830Z,19.7
2023-05-15T16:01:04.284Z,19.6
2023-05-15T16:03:36.363Z,19.6
2023-05-15T16:06:08.291Z,19.5
2023-05-15T16:08:40.879Z,19.5
2023-05-15T16:11:12.922Z,19.5
2023-05-15T16:13:46.320Z,19.3
2023-05-15T16:16:18.431Z,19.3
2023-05-15T16:18:50.418Z,19.4
2023-05-15T16:21:22.414Z,19.2
2023-05-15T16:23:54.684Z,19.1
2023-05-15T16:26:27.547Z,19.1
2023-05-15T16:29:00.657Z,19.1
2023-05-15T16:31:33.725Z,19.1
2023-05-15T16:34:06.962Z,19
2023-05-15T16:36:39.916Z,18.8
2023-05-15T16:39:11.885Z,19
2023-05-15T16:41:44.555Z,19
2023-05-15T16:44:20.397Z,18.9
2023-05-15T16:46:52.514Z,18.7
2023-05-15T16:49:24.369Z,18.7
2023-05-15T16:51:56.564Z,18.6
2023-05-15T16:54:29.710Z,18.5
2023-05-15T16:57:01.871Z,18.5
2023-05-15T16:59:31.073Z,18.2
2023-05-15T17:02:01.088Z,18.2
2023-05-15T17:04:39.020Z,18.3
2023-05-15T17:07:09.623Z,18.3
2023-05-15T17:09:40.878Z,18.1
2023-05-15T17:12:11.748Z,18.1
2023-05-15T17:14:42.374Z,18.1
2023-05-15T17:17:14.942Z,18.1
2023-05-15T17:19:46.196Z,18
2023-05-15T17:22:16.440Z,18
2023-05-15T17:24:51.170Z,18
2023-05-15T17:27:19.002Z,17.9
2023-05-15T17:29:50.555Z,17.9
2023-05-15T17:32:21.302Z,17.8
2023-05-15T17:34:51.741Z,17.8
2023-05-15T17:37:25.478Z,17.7
2023-05-15T17:39:56.734Z,17.6
2023-05-15T17:42:28.086Z,17.6
2023-05-15T17:45:19.091Z,17.3
2023-05-15T17:47:48.913Z,17.4
2023-05-15T17:50:19.037Z,17.5
2023-05-15T17:52:59.413Z,17.4
2023-05-15T17:55:43.925Z,17.5
2023-05-15T17:58:18.042Z,17.5
2023-05-15T18:03:25.674Z,17.5
2023-05-15T18:05:58.234Z,17.5
2023-05-15T18:08:28.166Z,17.5
2023-05-15T18:13:38.240Z,17.5
2023-05-15T18:16:09.021Z,17.4
2023-05-15T18:18:40.502Z,17.5
2023-05-15T18:21:10.658Z,17.5
2023-05-15T18:23:46.222Z,17.5
2023-05-15T18:26:16.851Z,17.5
2023-05-15T18:28:47.117Z,17.5
2023-05-15T18:31:22.347Z,17.6
2023-05-15T18:33:52.429Z,17.5
2023-05-15T18:36:22.664Z,17.4
2023-05-15T18:38:53.805Z,17.4
2023-05-15T18:41:27.227Z,17.6
2023-05-15T18:43:58.462Z,17.4
2023-05-15T18:46:29.648Z,17.4
2023-05-15T18:48:59.584Z,17.3
2023-05-15T18:51:37.888Z,17.4
2023-05-15T18:54:07.850Z,17.1
2023-05-15T18:56:43.097Z,17.4
2023-05-15T18:59:11.203Z,17.3
2023-05-15T19:01:41.503Z,17.4
2023-05-15T19:04:12.451Z,17.5
2023-05-15T19:06:43.739Z,17.5
2023-05-15T19:09:17.240Z,17.7
2023-05-15T19:11:46.963Z,17.5
2023-05-15T19:14:17.176Z,17.5
2023-05-15T19:16:48.315Z,17.5
2023-05-15T19:19:18.567Z,17.4
2023-05-15T19:21:49.421Z,17.4
2023-05-15T19:24:19.490Z,17.5
2023-05-15T19:26:50.666Z,17.4
2023-05-15T19:29:21.582Z,17.4
2023-05-15T19:31:51.817Z,17.4
2023-05-15T19:34:24.442Z,17.4
2023-05-15T19:36:54.790Z,17.4
2023-05-15T19:39:25.443Z,17.3
2023-05-15T19:41:55.727Z,17.3
2023-05-15T19:44:26.069Z,17.3
2023-05-15T19:46:57.363Z,17.2
2023-05-15T19:49:28.066Z,17.1
2023-05-15T19:51:59.413Z,17.2
2023-05-15T19:54:29.838Z,17.4
2023-05-15T19:57:01.426Z,17.3
2023-05-15T19:59:31.983Z,17.3
2023-05-15T20:02:02.871Z,17.4
2023-05-15T20:04:33.107Z,17.3
2023-05-15T20:07:04.776Z,17.3
2023-05-15T20:09:34.984Z,17.3
2023-05-15T20:12:05.692Z,17.3
2023-05-15T20:14:36.284Z,17.3
2023-05-15T20:17:06.974Z,17.3
2023-05-15T20:19:38.238Z,17.3
2023-05-15T20:22:08.486Z,17.3
2023-05-15T20:24:39.025Z,17.4
2023-05-15T20:27:09.086Z,17.4
2023-05-15T20:32:16.528Z,17.5
2023-05-15T20:34:46.756Z,17.4
2023-05-15T20:37:17.082Z,17.5
2023-05-15T20:39:47.504Z,17.4
2023-05-15T20:42:18.085Z,17.4
2023-05-15T20:44:49.178Z,17.4
2023-05-15T20:47:19.836Z,17.3
2023-05-15T20:49:50.085Z,17.2
2023-05-15T20:52:20.240Z,17.3
2023-05-15T20:54:51.146Z,17.3
2023-05-15T20:57:21.435Z,17.3
2023-05-15T20:59:51.916Z,17.1
2023-05-15T21:02:22.258Z,17.1
2023-05-15T21:04:53.730Z,17.2
2023-05-15T21:07:24.126Z,17.1
2023-05-15T21:09:54.344Z,17.2
2023-05-15T21:14:55.204Z,17.3
2023-05-15T21:17:26.108Z,17.2
2023-05-15T21:19:56.862Z,17.3
2023-05-15T21:22:31.895Z,17.3
2023-05-15T21:25:02.135Z,17.3
2023-05-15T21:27:32.840Z,17.2
2023-05-15T21:30:03.455Z,17.1
2023-05-15T21:32:34.053Z,17.2
2023-05-15T21:35:04.548Z,17.1
2023-05-15T21:37:35.927Z,17.1
2023-05-15T21:40:06.968Z,17.2
2023-05-15T21:42:37.208Z,17.2
2023-05-15T21:45:12.565Z,17.2
2023-05-15T21:47:43.476Z,17.3
2023-05-15T21:50:13.812Z,17.3
2023-05-15T21:52:44.256Z,17.3
2023-05-15T21:55:14.818Z,17.4
2023-05-15T21:57:45.633Z,17.4
2023-05-15T22:00:16.187Z,17.4
2023-05-15T22:02:48.416Z,17.4
2023-05-15T22:05:18.968Z,17.3
2023-05-15T22:07:49.344Z,17.3
2023-05-15T22:10:20.533Z,17.3
2023-05-15T22:12:51.311Z,17.5
2023-05-15T22:15:22.444Z,17.5
2023-05-15T22:17:54.456Z,17.4
2023-05-15T22:20:25.212Z,17.5
2023-05-15T22:22:56.662Z,17.5
2023-05-15T22:25:27.088Z,17.6
2023-05-15T22:28:06.655Z,17.4
2023-05-15T22:30:36.609Z,17.4
2023-05-15T22:33:10.024Z,17.4
2023-05-15T22:35:39.526Z,17.4
2023-05-15T22:38:09.827Z,17.3
2023-05-15T22:40:40.683Z,17.3
2023-05-15T22:43:11.003Z,17.4
2023-05-15T22:45:45.936Z,17.3
2023-05-15T22:48:16.924Z,17.3
2023-05-15T22:50:59.040Z,17.3
2023-05-15T22:53:33.950Z,17.4
2023-05-15T22:56:13.595Z,17.3
2023-05-15T22:58:44.133Z,17.4
2023-05-15T23:01:16.286Z,17.4
2023-05-15T23:03:46.051Z,17.3
2023-05-15T23:06:15.562Z,17.4
2023-05-15T23:08:46.384Z,17.4
2023-05-15T23:11:17.142Z,17.4
2023-05-15T23:13:48.234Z,17.5
2023-05-15T23:16:26.841Z,17.5
2023-05-15T23:18:58.159Z,17.6
2023-05-15T23:21:28.734Z,17.6
2023-05-15T23:23:59.433Z,17.4
2023-05-15T23:26:30.823Z,17.4
2023-05-15T23:29:01.385Z,17.4
2023-05-15T23:31:32.241Z,17.5
2023-05-15T23:34:02.775Z,17.5
2023-05-15T23:36:33.900Z,17.5
2023-05-15T23:39:04.384Z,17.5
2023-05-15T23:41:34.772Z,17.3
2023-05-15T23:44:05.903Z,17.3
2023-05-15T23:46:36.991Z,17.4
2023-05-15T23:49:08.475Z,17.3
2023-05-15T23:51:39.540Z,17.4
2023-05-15T23:54:10.331Z,17.4
2023-05-15T23:56:41.205Z,17.3
2023-05-15T23:59:12.393Z,17.2
